Time;durP1;ratioP1;P1;durP2;ratioP2;P2;SDS_P1;SDS_P2;PMS_P1;PMS_P2;Temp;Humidity;BMP_temperature;BMP_pressure;BME280_temperature;BME280_humidity;BME280_pressure;Samples;Min_cycle;Max_cycle;Signal;HPM_P1;HPM_P2
2023/05/19 00:02:19;;;;;;;5.93;4.50;;;14.40;58.60;;;;;;5073729;28;20449;-57
2023/05/19 00:04:48;;;;;;;7.13;4.27;;;14.40;58.80;;;;;;5074060;28;20464;-57
2023/05/19 00:07:19;;;;;;;4.43;3.67;;;14.30;59.00;;;;;;5073645;28;20472;-57
2023/05/19 00:09:46;;;;;;;6.87;4.27;;;14.30;59.10;;;;;;5073088;28;20954;-57
2023/05/19 00:12:14;;;;;;;7.40;4.33;;;14.20;59.20;;;;;;5073312;28;20456;-57
2023/05/19 00:14:41;;;;;;;5.90;4.10;;;14.20;59.40;;;;;;5073259;28;20469;-57
2023/05/19 00:17:09;;;;;;;7.60;4.13;;;14.20;59.40;;;;;;5073396;28;20464;-57
2023/05/19 00:19:36;;;;;;;4.97;4.13;;;14.20;59.90;;;;;;5072722;28;20449;-57
2023/05/19 00:22:04;;;;;;;6.10;4.17;;;14.10;60.00;;;;;;5073101;28;20949;-57
2023/05/19 00:24:32;;;;;;;5.37;3.97;;;14.10;60.20;;;;;;5073275;28;20583;-57
2023/05/19 00:26:58;;;;;;;4.87;3.60;;;14.10;60.80;;;;;;5073303;28;20487;-57
2023/05/19 00:29:25;;;;;;;5.73;3.90;;;14.00;60.80;;;;;;5073222;28;20455;-57
2023/05/19 00:31:52;;;;;;;7.30;4.03;;;14.00;61.40;;;;;;5073250;28;20445;-57
2023/05/19 00:34:18;;;;;;;8.67;5.03;;;13.90;61.60;;;;;;5073167;28;20494;-56
2023/05/19 00:36:45;;;;;;;6.67;4.43;;;13.90;61.60;;;;;;5073153;28;20476;-57
2023/05/19 00:39:11;;;;;;;5.37;4.30;;;13.80;61.80;;;;;;5072894;28;20961;-57
2023/05/19 00:41:40;;;;;;;6.80;4.27;;;13.80;62.10;;;;;;5073114;28;20509;-57
2023/05/19 00:44:07;;;;;;;6.40;4.20;;;13.70;62.10;;;;;;5073222;28;20463;-57
2023/05/19 00:46:34;;;;;;;5.73;4.23;;;13.70;62.60;;;;;;5073073;28;20496;-57
2023/05/19 00:49:00;;;;;;;9.23;5.03;;;13.70;63.00;;;;;;5073053;28;20455;-57
2023/05/19 00:51:28;;;;;;;6.80;4.13;;;13.70;63.20;;;;;;5073067;28;20456;-57
2023/05/19 00:53:55;;;;;;;7.00;4.63;;;13.60;63.30;;;;;;5073099;28;20460;-57
2023/05/19 00:56:23;;;;;;;5.17;4.50;;;13.60;63.50;;;;;;5072728;28;20487;-57
2023/05/19 00:58:52;;;;;;;5.53;4.00;;;13.50;63.80;;;;;;5073621;28;20444;-57
2023/05/19 01:01:20;;;;;;;7.53;4.37;;;13.50;64.00;;;;;;5073690;28;20826;-56
2023/05/19 01:03:48;;;;;;;4.83;4.43;;;13.50;64.70;;;;;;5073662;28;20484;-57
2023/05/19 01:06:17;;;;;;;4.93;3.97;;;13.40;64.80;;;;;;5073258;28;20834;-57
2023/05/19 01:08:44;;;;;;;5.27;4.20;;;13.40;64.60;;;;;;5072808;28;20476;-57
2023/05/19 01:11:11;;;;;;;4.60;4.20;;;13.30;64.60;;;;;;5073111;28;20444;-57
2023/05/19 01:13:38;;;;;;;4.80;4.00;;;13.30;64.60;;;;;;5072936;28;20467;-57
2023/05/19 01:16:11;;;;;;;5.33;3.30;;;13.30;64.70;;;;;;5072897;28;20510;-57
2023/05/19 01:18:50;;;;;;;5.20;3.77;;;13.20;64.80;;;;;;5072994;28;20439;-57
2023/05/19 01:21:54;;;;;;;6.93;4.03;;;13.10;65.30;;;;;;5072588;28;20915;-57
2023/05/19 01:24:38;;;;;;;7.10;3.63;;;13.00;65.70;;;;;;5072865;28;20443;-57
2023/05/19 01:27:23;;;;;;;5.63;3.73;;;13.00;65.90;;;;;;5072715;28;20504;-57
2023/05/19 01:30:22;;;;;;;5.30;4.27;;;12.90;66.50;;;;;;5073315;28;20423;-57
2023/05/19 01:32:53;;;;;;;5.07;3.83;;;12.90;66.90;;;;;;5072335;28;21023;-57
2023/05/19 01:35:22;;;;;;;4.40;3.50;;;12.80;67.20;;;;;;5075943;28;20575;-57
2023/05/19 01:37:51;;;;;;;5.33;3.87;;;12.80;67.60;;;;;;5076333;28;20443;-57
2023/05/19 01:40:19;;;;;;;8.43;4.07;;;12.80;68.00;;;;;;5063022;28;20453;-57
2023/05/19 01:42:46;;;;;;;4.27;3.80;;;12.80;68.20;;;;;;5056114;28;20449;-56
2023/05/19 01:45:13;;;;;;;5.33;3.57;;;12.70;68.20;;;;;;5057031;28;20517;-56
2023/05/19 01:47:42;;;;;;;4.90;4.50;;;12.80;68.40;;;;;;5057241;28;20442;-57
2023/05/19 01:50:11;;;;;;;7.90;3.53;;;12.70;68.20;;;;;;5056245;28;20485;-57
2023/05/19 01:52:38;;;;;;;3.47;3.17;;;12.60;68.20;;;;;;5056176;28;20472;-56
2023/05/19 01:55:05;;;;;;;4.97;3.83;;;12.50;68.30;;;;;;5055615;28;21049;-57
2023/05/19 01:57:42;;;;;;;6.23;3.30;;;12.40;68.30;;;;;;5055966;28;20457;-57
2023/05/19 02:00:16;;;;;;;4.80;3.80;;;12.40;68.70;;;;;;5055949;28;20426;-57
2023/05/19 02:02:54;;;;;;;4.30;3.90;;;12.30;69.00;;;;;;5055815;28;20426;-57
2023/05/19 02:05:30;;;;;;;4.47;4.00;;;12.30;69.70;;;;;;5055765;28;20495;-57
2023/05/19 02:08:04;;;;;;;3.60;3.30;;;12.20;70.10;;;;;;5055626;28;20434;-57
2023/05/19 02:10:32;;;;;;;4.00;3.27;;;12.20;70.10;;;;;;5056505;28;20457;-57
2023/05/19 02:13:03;;;;;;;4.90;3.80;;;12.10;70.40;;;;;;5055605;28;20491;-57
2023/05/19 02:15:38;;;;;;;3.83;3.53;;;12.10;70.50;;;;;;5055179;28;21011;-57
2023/05/19 02:18:06;;;;;;;6.43;3.50;;;12.10;70.60;;;;;;5055601;28;20477;-57
2023/05/19 02:20:34;;;;;;;4.50;3.17;;;12.10;70.90;;;;;;5055226;28;20947;-57
2023/05/19 02:23:00;;;;;;;4.60;3.73;;;12.00;70.90;;;;;;5055593;28;20452;-57
2023/05/19 02:25:27;;;;;;;7.47;3.90;;;12.00;70.90;;;;;;5055428;28;20477;-57
2023/05/19 02:27:55;;;;;;;5.33;4.00;;;12.00;71.20;;;;;;5055440;28;20445;-57
2023/05/19 02:30:21;;;;;;;4.77;4.17;;;12.10;72.00;;;;;;5055354;28;20442;-57
2023/05/19 02:32:48;;;;;;;6.30;4.33;;;12.10;72.20;;;;;;5055268;28;20456;-57
2023/05/19 02:35:15;;;;;;;6.13;4.70;;;12.10;72.40;;;;;;5055985;28;20469;-57
2023/05/19 02:37:43;;;;;;;8.00;5.03;;;12.10;72.70;;;;;;5055260;28;20453;-57
2023/05/19 02:40:10;;;;;;;6.67;5.17;;;12.10;72.70;;;;;;5055249;28;20476;-57
2023/05/19 02:42:36;;;;;;;5.13;3.90;;;12.10;72.40;;;;;;5054055;28;20798;-57
2023/05/19 02:45:03;;;;;;;8.73;4.27;;;12.10;72.50;;;;;;5055079;28;20805;-57
2023/05/19 02:47:30;;;;;;;4.87;3.60;;;12.10;72.10;;;;;;5054905;28;20446;-57
2023/05/19 02:49:57;;;;;;;4.57;3.50;;;12.00;71.50;;;;;;5055077;28;20477;-57
2023/05/19 02:52:23;;;;;;;9.67;4.10;;;11.90;71.30;;;;;;5055059;28;20790;-57
2023/05/19 02:54:51;;;;;;;7.97;5.10;;;11.90;71.90;;;;;;5054511;28;20978;-57
2023/05/19 02:57:18;;;;;;;6.40;4.70;;;11.90;72.10;;;;;;5054768;28;20489;-57
2023/05/19 02:59:45;;;;;;;4.60;4.07;;;11.90;72.40;;;;;;5054890;28;20511;-57
2023/05/19 03:02:11;;;;;;;3.93;3.63;;;11.80;72.30;;;;;;5054530;28;20932;-57
2023/05/19 03:04:40;;;;;;;8.47;4.47;;;11.70;72.70;;;;;;5054743;28;20469;-57
2023/05/19 03:07:08;;;;;;;4.27;3.47;;;11.70;73.10;;;;;;5054789;28;20453;-57
2023/05/19 03:09:35;;;;;;;4.40;4.00;;;11.70;73.10;;;;;;5054274;28;20569;-57
2023/05/19 03:12:05;;;;;;;4.43;3.63;;;11.70;73.40;;;;;;5054543;28;20531;-57
2023/05/19 03:14:33;;;;;;;6.20;3.73;;;11.70;73.70;;;;;;5054364;28;20504;-57
2023/05/19 03:17:00;;;;;;;6.77;4.27;;;11.60;73.60;;;;;;5054363;28;20967;-57
2023/05/19 03:19:27;;;;;;;4.23;3.83;;;11.60;73.90;;;;;;5054376;28;20508;-57
2023/05/19 03:21:55;;;;;;;5.90;4.40;;;11.60;74.20;;;;;;5054332;28;20524;-57
2023/05/19 03:24:21;;;;;;;7.00;3.97;;;11.60;73.80;;;;;;5054251;28;20864;-57
2023/05/19 03:26:48;;;;;;;5.77;4.03;;;11.50;73.50;;;;;;5054312;28;20515;-57
2023/05/19 03:29:16;;;;;;;6.83;4.07;;;11.50;73.50;;;;;;5053893;28;20955;-57
2023/05/19 03:31:43;;;;;;;9.60;4.30;;;11.40;73.90;;;;;;5054114;28;20519;-57
2023/05/19 03:34:10;;;;;;;6.33;4.03;;;11.40;74.10;;;;;;5054200;28;20457;-57
2023/05/19 03:36:38;;;;;;;4.87;3.63;;;11.40;74.20;;;;;;5053990;28;20481;-57
2023/05/19 03:39:05;;;;;;;4.40;3.60;;;11.30;74.50;;;;;;5054050;28;20453;-57
2023/05/19 03:41:31;;;;;;;7.03;3.77;;;11.20;74.60;;;;;;5054372;28;20485;-57
2023/05/19 03:43:58;;;;;;;6.30;4.70;;;11.20;74.70;;;;;;5053993;28;20500;-57
2023/05/19 03:46:26;;;;;;;4.03;3.67;;;11.20;75.80;;;;;;5053775;28;20473;-57
2023/05/19 03:48:53;;;;;;;7.07;4.43;;;11.20;75.00;;;;;;5053853;28;20453;-57
2023/05/19 03:51:19;;;;;;;5.07;4.20;;;11.10;75.00;;;;;;5053796;28;20449;-57
2023/05/19 03:53:47;;;;;;;4.60;4.13;;;11.10;75.40;;;;;;5052817;28;20452;-57
2023/05/19 03:56:15;;;;;;;6.13;4.30;;;11.10;75.30;;;;;;5053326;28;20528;-57
2023/05/19 03:58:43;;;;;;;4.17;3.73;;;11.00;75.10;;;;;;5053653;28;20454;-57
2023/05/19 04:01:10;;;;;;;7.83;4.17;;;11.00;75.40;;;;;;5053358;28;20982;-57
2023/05/19 04:03:38;;;;;;;4.43;4.03;;;11.00;76.00;;;;;;5053663;28;20453;-57
2023/05/19 04:06:05;;;;;;;4.03;3.70;;;10.90;76.30;;;;;;5054385;28;20461;-57
2023/05/19 04:08:32;;;;;;;6.63;4.03;;;10.90;76.50;;;;;;5055329;28;20955;-57
2023/05/19 04:10:59;;;;;;;10.67;5.10;;;11.00;76.50;;;;;;5054643;28;20449;-57
2023/05/19 04:13:25;;;;;;;6.00;5.03;;;10.90;76.70;;;;;;5054342;28;20472;-57
2023/05/19 04:15:52;;;;;;;4.13;3.70;;;10.90;76.70;;;;;;5053745;28;20468;-57
2023/05/19 04:18:19;;;;;;;6.43;3.70;;;11.00;77.10;;;;;;5053678;28;20800;-57
2023/05/19 04:20:47;;;;;;;4.57;4.17;;;10.90;77.00;;;;;;5054005;28;20456;-57
2023/05/19 04:23:14;;;;;;;5.33;3.97;;;10.90;77.00;;;;;;5053198;28;20450;-57
2023/05/19 04:25:41;;;;;;;3.80;3.50;;;10.80;77.00;;;;;;5053316;28;20470;-57
2023/05/19 04:28:08;;;;;;;4.17;3.83;;;10.90;77.50;;;;;;5053367;28;20450;-57
2023/05/19 04:30:35;;;;;;;4.87;4.27;;;10.90;77.90;;;;;;5053294;28;20453;-57
2023/05/19 04:33:03;;;;;;;6.73;4.47;;;10.90;78.20;;;;;;5053232;28;20485;-57
2023/05/19 04:35:30;;;;;;;4.67;4.17;;;10.90;78.30;;;;;;5052889;28;20473;-57
2023/05/19 04:37:58;;;;;;;8.70;5.47;;;10.90;78.70;;;;;;5053177;28;20485;-57
2023/05/19 04:40:25;;;;;;;9.93;5.10;;;10.90;79.40;;;;;;5052856;28;20848;-57
2023/05/19 04:42:52;;;;;;;6.00;4.83;;;11.00;79.70;;;;;;5053009;28;21009;-57
2023/05/19 04:45:19;;;;;;;6.47;4.70;;;11.00;80.40;;;;;;5052771;28;20979;-57
2023/05/19 04:47:46;;;;;;;7.57;5.00;;;11.10;81.10;;;;;;5053800;28;20515;-57
2023/05/19 04:50:13;;;;;;;10.57;5.80;;;11.20;81.80;;;;;;5053121;28;20449;-57
2023/05/19 04:52:40;;;;;;;7.70;5.57;;;11.20;81.90;;;;;;5053171;28;20461;-57
2023/05/19 04:55:10;;;;;;;7.00;6.30;;;11.30;82.10;;;;;;5053060;28;20469;-57
2023/05/19 04:57:37;;;;;;;9.43;6.87;;;11.30;82.50;;;;;;5052993;28;20486;-57
2023/05/19 05:00:07;;;;;;;6.47;5.40;;;11.40;83.00;;;;;;5053230;28;20453;-57
2023/05/19 05:02:34;;;;;;;7.40;5.77;;;11.40;83.00;;;;;;5052979;28;20437;-57
2023/05/19 05:05:01;;;;;;;7.80;5.90;;;11.50;83.00;;;;;;5053801;28;20560;-57
2023/05/19 05:07:28;;;;;;;9.47;6.03;;;11.50;83.20;;;;;;5056946;28;20448;-57
2023/05/19 05:09:55;;;;;;;9.53;6.50;;;11.50;83.00;;;;;;5056518;28;20457;-57
2023/05/19 05:12:23;;;;;;;9.87;5.63;;;11.50;83.90;;;;;;5056463;28;20831;-57
2023/05/19 05:14:51;;;;;;;8.20;6.20;;;11.50;83.60;;;;;;5056732;28;20462;-57
2023/05/19 05:17:18;;;;;;;8.23;6.27;;;11.60;84.10;;;;;;5056612;28;20489;-57
2023/05/19 05:19:45;;;;;;;11.43;7.40;;;11.60;84.30;;;;;;5056666;28;20468;-57
2023/05/19 05:22:12;;;;;;;8.10;6.70;;;11.60;84.60;;;;;;5056611;28;20448;-57
2023/05/19 05:24:40;;;;;;;8.83;6.20;;;11.70;84.70;;;;;;5056554;28;20484;-57
2023/05/19 05:27:07;;;;;;;9.93;6.53;;;11.70;84.70;;;;;;5056261;28;20450;-57
2023/05/19 05:29:35;;;;;;;7.07;6.37;;;11.80;85.00;;;;;;5056482;28;20453;-57
2023/05/19 05:32:02;;;;;;;13.03;7.10;;;11.90;85.40;;;;;;5056442;28;20539;-57
2023/05/19 05:34:28;;;;;;;9.80;6.97;;;12.00;85.70;;;;;;5056342;28;20456;-57
2023/05/19 05:36:55;;;;;;;9.50;7.40;;;12.00;85.50;;;;;;5056286;28;20477;-57
2023/05/19 05:39:22;;;;;;;14.17;8.60;;;12.10;85.70;;;;;;5056258;28;20575;-57
2023/05/19 05:41:48;;;;;;;12.50;7.87;;;12.10;85.70;;;;;;5056108;28;20456;-56
2023/05/19 05:44:15;;;;;;;9.03;7.00;;;12.20;85.60;;;;;;5056146;28;20453;-57
2023/05/19 05:46:44;;;;;;;8.90;6.90;;;12.30;85.50;;;;;;5056980;28;20446;-57
2023/05/19 05:49:12;;;;;;;7.73;6.97;;;12.40;85.00;;;;;;5056153;28;20812;-57
2023/05/19 05:51:39;;;;;;;10.33;6.83;;;12.50;85.20;;;;;;5055765;28;21039;-58
2023/05/19 05:54:07;;;;;;;10.40;6.90;;;12.60;85.40;;;;;;5055680;28;20936;-57
2023/05/19 05:56:37;;;;;;;11.17;6.83;;;12.80;85.50;;;;;;5055551;28;20473;-57
2023/05/19 05:59:04;;;;;;;10.47;6.73;;;12.90;85.00;;;;;;5055920;28;20446;-57
2023/05/19 06:01:31;;;;;;;10.03;6.50;;;13.00;84.20;;;;;;5055927;28;20449;-57
2023/05/19 06:03:59;;;;;;;8.50;7.00;;;13.10;83.90;;;;;;5055808;28;20532;-58
2023/05/19 06:06:26;;;;;;;9.33;6.13;;;13.20;84.30;;;;;;5055750;28;20479;-58
2023/05/19 06:08:52;;;;;;;8.00;4.90;;;13.30;83.20;;;;;;5055850;28;20476;-57
2023/05/19 06:11:20;;;;;;;8.67;6.13;;;13.40;83.10;;;;;;5055695;28;20814;-57
2023/05/19 06:13:46;;;;;;;8.90;5.60;;;13.50;82.60;;;;;;5055728;28;20457;-57
2023/05/19 06:16:13;;;;;;;8.30;5.80;;;13.60;82.60;;;;;;5054954;28;20481;-57
2023/05/19 06:18:40;;;;;;;7.50;6.50;;;13.70;82.30;;;;;;5055207;28;20485;-57
2023/05/19 06:21:08;;;;;;;8.60;6.47;;;13.80;82.00;;;;;;5055534;28;20450;-57
2023/05/19 06:23:35;;;;;;;6.30;5.40;;;13.90;81.20;;;;;;5055473;28;20449;-57
2023/05/19 06:26:02;;;;;;;5.77;5.00;;;14.00;81.50;;;;;;5055178;28;20476;-56
2023/05/19 06:28:29;;;;;;;9.77;6.00;;;14.20;81.60;;;;;;5055380;28;20445;-57
2023/05/19 06:30:55;;;;;;;8.67;6.10;;;14.30;80.60;;;;;;5055328;28;20453;-57
2023/05/19 06:33:22;;;;;;;7.80;4.57;;;14.40;80.00;;;;;;5055355;28;20442;-57
2023/05/19 06:35:49;;;;;;;11.43;5.40;;;14.50;79.20;;;;;;5055191;28;20465;-57
2023/05/19 06:38:17;;;;;;;7.73;5.10;;;14.70;79.00;;;;;;5054903;28;20995;-58
2023/05/19 06:40:43;;;;;;;7.90;6.17;;;14.80;78.50;;;;;;5054864;28;20955;-57
2023/05/19 06:43:10;;;;;;;9.93;5.70;;;14.90;78.00;;;;;;5055161;28;20796;-57
2023/05/19 06:45:37;;;;;;;10.00;5.40;;;15.10;77.00;;;;;;5055133;28;20473;-57
2023/05/19 06:48:04;;;;;;;10.90;5.10;;;15.20;76.50;;;;;;5055191;28;20449;-57
2023/05/19 06:50:30;;;;;;;7.10;4.90;;;15.40;76.40;;;;;;5054984;28;20452;-57
2023/05/19 06:52:57;;;;;;;8.13;5.17;;;15.50;77.00;;;;;;5054935;28;20457;-57
2023/05/19 06:55:25;;;;;;;10.07;4.80;;;15.70;75.70;;;;;;5054933;28;20496;-57
2023/05/19 06:57:52;;;;;;;7.50;5.47;;;15.90;76.00;;;;;;5054884;28;20477;-57
2023/05/19 07:00:19;;;;;;;8.27;4.33;;;16.00;73.70;;;;;;5054885;28;20445;-58
2023/05/19 07:02:46;;;;;;;9.40;4.87;;;16.20;72.30;;;;;;5056565;28;20454;-57
2023/05/19 07:05:12;;;;;;;10.23;5.23;;;16.30;72.00;;;;;;5055504;28;20466;-57
2023/05/19 07:07:40;;;;;;;9.40;5.03;;;16.50;71.20;;;;;;5056153;28;20963;-58
2023/05/19 07:10:07;;;;;;;8.83;4.50;;;16.70;70.70;;;;;;5055185;28;20492;-57
2023/05/19 07:12:35;;;;;;;9.97;5.00;;;16.90;69.40;;;;;;5055201;28;20499;-57
2023/05/19 07:15:02;;;;;;;6.57;4.20;;;17.10;68.00;;;;;;5054785;28;20519;-57
2023/05/19 07:17:29;;;;;;;7.57;4.80;;;17.20;67.20;;;;;;5054336;28;20477;-57
2023/05/19 07:19:56;;;;;;;10.47;3.47;;;17.40;67.10;;;;;;5054302;28;20453;-57
2023/05/19 07:22:22;;;;;;;5.77;3.83;;;17.60;65.90;;;;;;5054543;28;20969;-57
2023/05/19 07:24:49;;;;;;;5.47;3.17;;;17.80;65.10;;;;;;5055382;28;20469;-58
2023/05/19 07:27:16;;;;;;;8.40;3.80;;;18.00;64.00;;;;;;5055811;28;20453;-58
2023/05/19 07:29:44;;;;;;;6.87;3.70;;;18.10;63.20;;;;;;5054034;28;20457;-57
2023/05/19 07:32:11;;;;;;;5.43;3.50;;;18.30;62.00;;;;;;5053921;28;20503;-57
2023/05/19 07:34:38;;;;;;;12.93;3.07;;;18.50;61.60;;;;;;5054185;28;20485;-57
2023/05/19 07:37:04;;;;;;;9.67;2.87;;;18.70;60.30;;;;;;5054140;28;20449;-58
2023/05/19 07:39:31;;;;;;;5.80;2.57;;;18.90;59.20;;;;;;5054080;28;20445;-58
2023/05/19 07:41:58;;;;;;;5.33;2.57;;;19.10;58.30;;;;;;5054017;28;20449;-57
2023/05/19 07:44:25;;;;;;;6.40;2.60;;;19.20;57.00;;;;;;5054590;28;20449;-58
2023/05/19 07:46:54;;;;;;;3.90;2.10;;;19.40;57.50;;;;;;5053636;28;20464;-58
2023/05/19 07:49:20;;;;;;;6.03;2.10;;;19.50;56.30;;;;;;5054024;28;20445;-58
2023/05/19 07:51:47;;;;;;;5.90;2.10;;;19.70;56.20;;;;;;5054704;28;20456;-58
2023/05/19 07:54:14;;;;;;;6.87;3.23;;;19.90;56.10;;;;;;5053824;28;20457;-57
2023/05/19 07:56:41;;;;;;;4.33;2.13;;;20.10;55.20;;;;;;5053440;28;20441;-58
2023/05/19 07:59:07;;;;;;;5.73;2.57;;;20.40;54.20;;;;;;5053326;28;20966;-58
2023/05/19 08:01:34;;;;;;;4.53;1.80;;;20.60;53.50;;;;;;5053745;28;20445;-58
2023/05/19 08:04:02;;;;;;;4.67;2.23;;;20.80;51.90;;;;;;5053671;28;20449;-58
2023/05/19 08:06:30;;;;;;;2.83;1.83;;;20.90;50.80;;;;;;5053530;28;20465;-58
2023/05/19 08:08:57;;;;;;;5.20;2.00;;;21.10;50.30;;;;;;5053290;28;20481;-58
2023/05/19 08:11:24;;;;;;;6.50;2.17;;;21.20;50.20;;;;;;5053488;28;20449;-58
2023/05/19 08:13:51;;;;;;;3.50;1.77;;;21.50;49.70;;;;;;5053510;28;20536;-58
2023/05/19 08:16:18;;;;;;;8.00;2.80;;;21.70;50.40;;;;;;5053460;28;20462;-58
2023/05/19 08:18:44;;;;;;;5.57;1.97;;;21.90;49.00;;;;;;5053910;28;20508;-57
2023/05/19 08:21:12;;;;;;;4.00;1.93;;;22.10;48.50;;;;;;5064936;28;20455;-57
2023/05/19 08:23:39;;;;;;;10.67;2.17;;;22.30;47.50;;;;;;5073140;28;20957;-58
2023/05/19 08:26:06;;;;;;;3.00;1.67;;;22.50;46.70;;;;;;5073331;28;20479;-58
2023/05/19 08:28:33;;;;;;;5.10;1.90;;;22.70;46.70;;;;;;5073021;28;20449;-58
2023/05/19 08:30:59;;;;;;;3.97;1.80;;;22.90;46.20;;;;;;5073354;28;20471;-58
2023/05/19 08:33:26;;;;;;;4.03;1.60;;;23.10;45.10;;;;;;5073347;28;20444;-58
2023/05/19 08:35:54;;;;;;;8.30;2.73;;;23.30;44.30;;;;;;5073170;28;20498;-58
2023/05/19 08:38:22;;;;;;;3.87;1.90;;;23.50;43.80;;;;;;5073087;28;20472;-58
2023/05/19 08:40:48;;;;;;;5.33;2.07;;;23.60;43.30;;;;;;5077977;28;20451;-58
2023/05/19 08:43:15;;;;;;;5.83;1.60;;;23.70;43.10;;;;;;5079914;28;20885;-58
2023/05/19 08:45:45;;;;;;;4.20;1.50;;;24.00;42.70;;;;;;5079603;28;20974;-58
2023/05/19 08:48:13;;;;;;;6.33;1.80;;;24.20;41.00;;;;;;5079852;28;20482;-58
2023/05/19 08:50:42;;;;;;;2.77;1.70;;;24.30;41.10;;;;;;5079839;28;20444;-57
2023/05/19 08:53:13;;;;;;;4.67;1.83;;;24.50;40.90;;;;;;5079450;28;20954;-58
2023/05/19 08:55:45;;;;;;;4.43;1.63;;;24.60;41.00;;;;;;5080017;28;20481;-58
2023/05/19 08:58:14;;;;;;;3.13;1.57;;;24.80;40.70;;;;;;5079552;28;20497;-58
2023/05/19 09:00:41;;;;;;;4.73;1.70;;;25.00;39.20;;;;;;5079815;28;20448;-58
2023/05/19 09:03:08;;;;;;;2.83;1.70;;;25.30;38.40;;;;;;5079684;28;20452;-58
2023/05/19 09:05:35;;;;;;;6.63;1.60;;;25.40;38.20;;;;;;5079720;28;20471;-58
2023/05/19 09:08:03;;;;;;;4.23;2.30;;;25.60;38.10;;;;;;5079595;28;20501;-58
2023/05/19 09:10:29;;;;;;;3.13;1.73;;;25.70;37.50;;;;;;5079812;28;20437;-58
2023/05/19 09:12:58;;;;;;;7.50;1.93;;;25.70;37.70;;;;;;5079862;28;20448;-57
2023/05/19 09:15:27;;;;;;;3.93;2.00;;;25.90;37.20;;;;;;5079838;28;20476;-57
2023/05/19 09:18:06;;;;;;;11.20;2.63;;;26.10;37.50;;;;;;5079502;28;21061;-57
2023/05/19 09:20:36;;;;;;;7.90;2.53;;;26.30;37.20;;;;;;5080390;28;20436;-56
2023/05/19 09:23:03;;;;;;;4.20;2.50;;;26.50;36.50;;;;;;5080096;28;20862;-57
2023/05/19 09:25:30;;;;;;;4.00;1.97;;;26.70;35.60;;;;;;5079501;28;20472;-57
2023/05/19 09:27:58;;;;;;;5.40;1.87;;;26.90;35.10;;;;;;5079393;28;20451;-55
2023/05/19 09:30:25;;;;;;;3.37;1.97;;;27.10;34.30;;;;;;5070946;28;20951;-55
2023/05/19 09:32:52;;;;;;;2.37;1.67;;;27.40;33.30;;;;;;5059297;28;20484;-57
2023/05/19 09:35:20;;;;;;;4.50;1.70;;;27.60;33.60;;;;;;5059354;28;20465;-56
2023/05/19 09:37:47;;;;;;;4.50;2.20;;;27.70;33.40;;;;;;5059540;28;20461;-56
2023/05/19 09:40:15;;;;;;;5.77;2.50;;;27.90;33.50;;;;;;5059339;28;20460;-57
2023/05/19 09:42:42;;;;;;;4.77;1.60;;;27.90;32.00;;;;;;5059289;28;20452;-57
2023/05/19 09:45:11;;;;;;;3.67;1.90;;;28.00;32.60;;;;;;5059225;28;20465;-57
2023/05/19 09:47:39;;;;;;;3.57;2.10;;;28.20;31.80;;;;;;5059256;28;20514;-57
2023/05/19 09:50:08;;;;;;;5.63;2.20;;;28.50;29.90;;;;;;5059215;28;20449;-57
2023/05/19 09:52:39;;;;;;;4.93;2.43;;;28.80;30.30;;;;;;5056463;28;20492;-57
2023/05/19 09:55:10;;;;;;;3.77;2.00;;;29.10;30.80;;;;;;5055904;28;20483;-57
2023/05/19 09:57:37;;;;;;;3.70;1.93;;;29.40;29.10;;;;;;5055657;28;20908;-57
2023/05/19 10:00:12;;;;;;;9.00;1.87;;;29.80;29.70;;;;;;5055645;28;20973;-57
2023/05/19 10:02:42;;;;;;;5.67;2.03;;;30.10;29.70;;;;;;5055987;28;20498;-57
2023/05/19 10:05:12;;;;;;;4.57;2.00;;;30.50;29.50;;;;;;5055953;28;20551;-57
2023/05/19 10:07:40;;;;;;;3.27;1.83;;;30.90;29.00;;;;;;5056108;28;20445;-57
2023/05/19 10:10:11;;;;;;;5.43;2.30;;;31.30;28.20;;;;;;5055594;28;20966;-57
2023/05/19 10:12:39;;;;;;;3.27;2.00;;;31.70;26.50;;;;;;5055722;28;20437;-56
2023/05/19 10:15:08;;;;;;;5.63;2.23;;;31.90;26.70;;;;;;5055754;28;20560;-57
2023/05/19 10:17:37;;;;;;;4.03;1.90;;;32.20;26.50;;;;;;5055398;28;20457;-57
2023/05/19 10:20:08;;;;;;;6.27;1.93;;;32.50;26.00;;;;;;5055546;28;20488;-57
2023/05/19 10:22:35;;;;;;;3.70;2.40;;;32.80;24.40;;;;;;5055696;28;20496;-57
2023/05/19 10:25:02;;;;;;;8.57;2.43;;;33.20;24.90;;;;;;5055482;28;20473;-57
2023/05/19 10:27:30;;;;;;;5.93;2.87;;;33.50;24.70;;;;;;5055485;28;20445;-57
2023/05/19 10:30:00;;;;;;;4.03;2.33;;;33.70;24.40;;;;;;5055466;28;20454;-57
2023/05/19 10:32:30;;;;;;;7.50;2.10;;;33.90;24.40;;;;;;5055454;28;20468;-57
2023/05/19 10:35:22;;;;;;;4.10;2.03;;;33.90;24.50;;;;;;5055309;28;20826;-57
2023/05/19 10:37:57;;;;;;;3.77;1.77;;;34.00;24.60;;;;;;5056059;28;20455;-56
2023/05/19 10:40:28;;;;;;;4.20;2.10;;;33.90;24.20;;;;;;5055268;28;20432;-57
2023/05/19 10:43:06;;;;;;;2.97;1.70;;;34.10;23.80;;;;;;5054870;28;20433;-57
2023/05/19 10:45:39;;;;;;;5.93;2.57;;;34.60;23.70;;;;;;5055124;28;20523;-57
2023/05/19 10:48:10;;;;;;;4.80;2.40;;;35.10;21.40;;;;;;5054813;28;20195;-57
2023/05/19 10:50:39;;;;;;;5.50;2.00;;;34.80;21.80;;;;;;5067162;28;20864;-57
2023/05/19 10:53:14;;;;;;;5.63;1.90;;;34.90;22.80;;;;;;5074966;28;20467;-57
2023/05/19 10:55:51;;;;;;;7.30;2.23;;;35.00;22.70;;;;;;5074943;28;20472;-57
2023/05/19 10:58:36;;;;;;;7.10;2.20;;;34.80;22.90;;;;;;5074501;28;20965;-57
2023/05/19 11:01:07;;;;;;;7.37;2.27;;;34.50;23.20;;;;;;5074879;28;20190;-57
2023/05/19 11:03:44;;;;;;;10.67;3.00;;;34.00;23.30;;;;;;5057874;28;20472;-56
2023/05/19 11:06:19;;;;;;;7.17;2.30;;;33.70;23.50;;;;;;5054709;28;20893;-57
2023/05/19 11:08:47;;;;;;;4.00;2.40;;;33.90;23.60;;;;;;5054442;28;20452;-57
2023/05/19 11:11:15;;;;;;;7.03;1.87;;;33.80;23.20;;;;;;5054554;28;20510;-57
2023/05/19 11:13:46;;;;;;;4.00;1.80;;;33.70;23.40;;;;;;5055116;28;20481;-57
2023/05/19 11:16:13;;;;;;;5.73;2.57;;;34.30;23.10;;;;;;5054380;28;20464;-57
2023/05/19 11:18:40;;;;;;;7.80;2.83;;;35.10;22.90;;;;;;5054126;28;21105;-57
2023/05/19 11:21:07;;;;;;;5.60;2.97;;;36.10;22.00;;;;;;5054484;28;20225;-57
2023/05/19 11:23:39;;;;;;;3.00;1.90;;;36.70;20.60;;;;;;5054458;28;20210;-57
2023/05/19 11:26:07;;;;;;;5.68;2.03;;;37.30;20.40;;;;;;5054472;28;20258;-57
2023/05/19 11:28:35;;;;;;;6.80;1.83;;;38.00;19.60;;;;;;5054913;28;20285;-57
2023/05/19 11:31:02;;;;;;;8.10;2.55;;;38.70;19.10;;;;;;5054264;28;20206;-57
2023/05/19 11:33:32;;;;;;;3.65;2.40;;;39.20;18.80;;;;;;5054195;28;20328;-57
2023/05/19 11:35:58;;;;;;;3.83;2.35;;;39.90;18.60;;;;;;5054050;28;20284;-57
2023/05/19 11:38:26;;;;;;;4.75;2.17;;;40.40;18.10;;;;;;5053674;28;20210;-57
2023/05/19 11:40:55;;;;;;;5.22;2.05;;;40.40;17.50;;;;;;5053827;28;20199;-57
2023/05/19 11:43:25;;;;;;;3.70;2.00;;;40.60;17.80;;;;;;5054004;28;20203;-58
2023/05/19 11:45:53;;;;;;;4.15;2.47;;;40.50;18.00;;;;;;5053907;28;20332;-57
2023/05/19 11:48:21;;;;;;;4.43;2.22;;;40.30;16.80;;;;;;5053993;28;20202;-57
2023/05/19 11:50:48;;;;;;;6.43;2.42;;;40.00;17.00;;;;;;5053859;28;20620;-57
2023/05/19 11:53:16;;;;;;;4.32;2.45;;;39.30;17.20;;;;;;5053809;28;20210;-57
2023/05/19 11:55:44;;;;;;;4.32;2.05;;;38.40;18.20;;;;;;5053763;28;20253;-57
2023/05/19 11:58:12;;;;;;;4.35;2.20;;;37.50;19.20;;;;;;5053833;28;20233;-57
2023/05/19 12:00:40;;;;;;;4.75;2.08;;;37.10;20.40;;;;;;5053722;28;20225;-57
2023/05/19 12:03:07;;;;;;;3.65;1.90;;;37.50;21.10;;;;;;5053675;28;20202;-58
2023/05/19 12:05:37;;;;;;;7.03;2.65;;;38.10;20.30;;;;;;5053605;28;20225;-57
2023/05/19 12:08:05;;;;;;;3.35;1.90;;;38.90;19.60;;;;;;5053176;28;20209;-58
2023/05/19 12:10:34;;;;;;;4.97;2.10;;;39.70;18.80;;;;;;5053234;28;20248;-58
2023/05/19 12:13:02;;;;;;;4.97;2.45;;;40.50;18.30;;;;;;5053501;28;20203;-57
2023/05/19 12:15:32;;;;;;;6.00;2.42;;;40.80;17.10;;;;;;5052599;28;20222;-58
2023/05/19 12:18:00;;;;;;;5.70;2.58;;;40.70;17.30;;;;;;5053422;28;20193;-58
2023/05/19 12:20:27;;;;;;;4.72;2.38;;;40.70;17.90;;;;;;5053347;28;20608;-57
2023/05/19 12:22:55;;;;;;;5.00;2.53;;;41.00;16.90;;;;;;5053386;28;20206;-58
2023/05/19 12:25:23;;;;;;;3.65;2.10;;;41.50;17.30;;;;;;5053366;28;20230;-58
2023/05/19 12:27:51;;;;;;;4.78;2.30;;;41.90;16.60;;;;;;5053392;28;20198;-58
2023/05/19 12:30:18;;;;;;;4.05;2.17;;;42.10;16.20;;;;;;5053243;28;20201;-58
2023/05/19 12:32:47;;;;;;;5.65;2.03;;;42.20;15.90;;;;;;5053248;28;20288;-57
2023/05/19 12:35:15;;;;;;;3.08;1.90;;;42.70;14.90;;;;;;5053208;28;20313;-57
2023/05/19 12:37:42;;;;;;;5.15;2.40;;;42.90;14.10;;;;;;5053233;28;20209;-58
2023/05/19 12:40:14;;;;;;;4.38;2.30;;;42.90;14.60;;;;;;5053125;28;20225;-58
2023/05/19 12:42:44;;;;;;;6.22;2.38;;;42.60;15.40;;;;;;5053251;28;20245;-57
2023/05/19 12:45:11;;;;;;;3.45;2.28;;;42.00;15.60;;;;;;5053151;28;20229;-57
2023/05/19 12:47:38;;;;;;;4.95;2.13;;;41.40;16.10;;;;;;5052830;28;20695;-57
2023/05/19 12:50:07;;;;;;;3.28;2.00;;;40.50;16.80;;;;;;5052799;28;20202;-57
2023/05/19 12:52:41;;;;;;;5.78;2.53;;;40.00;17.80;;;;;;5053035;28;20209;-57